createdAt,value
2017-08-17T00:03:54.825Z,8.40
2017-08-17T00:08:56.743Z,6.33
2017-08-17T00:13:58.682Z,9.47
2017-08-17T00:19:00.649Z,18.63
2017-08-17T00:24:02.636Z,9.70
2017-08-17T00:29:04.563Z,13.10
2017-08-17T00:34:06.515Z,16.33
2017-08-17T00:39:08.508Z,5.70
2017-08-17T00:44:11.223Z,8.23
2017-08-17T00:49:13.315Z,5.80
2017-08-17T00:54:16.033Z,7.17
2017-08-17T00:59:18.579Z,6.60
2017-08-17T01:04:21.235Z,14.50
2017-08-17T01:09:24.022Z,8.23
2017-08-17T01:14:26.947Z,9.63
2017-08-17T01:19:29.899Z,12.90
2017-08-17T01:24:32.662Z,7.23
2017-08-17T01:29:35.454Z,15.17
2017-08-17T01:34:37.968Z,8.30
2017-08-17T01:39:40.669Z,8.70
2017-08-17T01:44:43.735Z,11.53
2017-08-17T01:49:45.909Z,10.23
2017-08-17T01:54:47.990Z,9.87
2017-08-17T01:59:50.049Z,7.90
2017-08-17T02:04:52.060Z,10.30
2017-08-17T02:09:54.320Z,11.23
2017-08-17T02:14:56.621Z,11.90
2017-08-17T02:19:58.598Z,12.43
2017-08-17T02:25:00.556Z,12.20
2017-08-17T02:30:02.516Z,11.10
2017-08-17T02:35:04.477Z,12.13
2017-08-17T02:40:06.409Z,12.33
2017-08-17T02:45:08.407Z,17.03
2017-08-17T02:50:10.433Z,13.70
2017-08-17T02:55:12.411Z,10.70
2017-08-17T03:00:14.374Z,14.03
2017-08-17T03:05:16.344Z,15.23
2017-08-17T03:10:19.036Z,15.90
2017-08-17T03:15:21.007Z,13.93
2017-08-17T03:20:22.967Z,14.80
2017-08-17T03:25:25.085Z,17.87
2017-08-17T03:30:27.262Z,21.90
2017-08-17T03:35:29.258Z,15.77
2017-08-17T03:40:31.287Z,15.70
2017-08-17T03:45:33.234Z,18.90
2017-08-17T03:50:35.285Z,17.83
2017-08-17T03:55:38.128Z,18.03
2017-08-17T04:00:40.225Z,16.60
2017-08-17T04:05:42.491Z,18.43
2017-08-17T04:10:45.044Z,17.40
2017-08-17T04:15:47.033Z,24.50
2017-08-17T04:20:50.168Z,21.70
2017-08-17T04:25:53.131Z,23.80
2017-08-17T04:30:55.953Z,18.80
2017-08-17T04:35:57.896Z,27.77
2017-08-17T04:40:59.826Z,24.60
2017-08-17T04:46:01.865Z,21.43
2017-08-17T04:51:03.827Z,21.47
2017-08-17T04:56:30.089Z,24.30
2017-08-17T05:01:32.067Z,19.90
2017-08-17T05:06:34.016Z,18.50
2017-08-17T05:11:36.128Z,20.73
2017-08-17T05:16:38.108Z,19.13
2017-08-17T05:21:40.078Z,21.53
2017-08-17T05:26:47.770Z,20.13
2017-08-17T05:31:54.498Z,22.63
2017-08-17T05:36:56.963Z,18.80
2017-08-17T05:41:58.931Z,19.17
2017-08-17T05:47:02.373Z,18.20
2017-08-17T05:52:04.508Z,22.13
2017-08-17T05:57:07.349Z,18.13
2017-08-17T06:02:09.309Z,22.17
2017-08-17T06:07:11.311Z,14.30
2017-08-17T06:12:14.007Z,34.27
2017-08-17T06:17:15.955Z,14.20
2017-08-17T06:22:17.931Z,17.58
2017-08-17T06:27:19.925Z,12.00
2017-08-17T06:32:21.910Z,12.53
2017-08-17T06:37:26.131Z,16.10
2017-08-17T06:42:28.063Z,14.00
2017-08-17T06:47:30.007Z,15.07
2017-08-17T06:52:31.982Z,10.17
2017-08-17T06:57:33.912Z,12.20
2017-08-17T07:02:35.862Z,13.80
2017-08-17T07:07:37.839Z,13.60
2017-08-17T07:12:39.931Z,11.80
2017-08-17T07:17:42.474Z,10.60
2017-08-17T07:22:45.158Z,12.00
2017-08-17T07:27:47.110Z,14.63
2017-08-17T07:32:49.121Z,10.17
2017-08-17T07:37:51.167Z,9.43
2017-08-17T07:42:53.533Z,30.60
2017-08-17T07:47:56.245Z,8.60
2017-08-17T07:52:58.274Z,18.33
2017-08-17T07:58:00.260Z,8.30
2017-08-17T08:03:02.686Z,10.50
2017-08-17T08:08:04.707Z,11.80
2017-08-17T08:13:06.691Z,12.93
2017-08-17T08:18:08.663Z,10.33
2017-08-17T08:23:10.611Z,9.93
2017-08-17T08:28:12.544Z,9.63
2017-08-17T08:33:14.491Z,11.37
2017-08-17T08:38:16.433Z,12.57
2017-08-17T08:43:18.493Z,25.47
2017-08-17T08:48:20.481Z,11.10
2017-08-17T08:53:22.442Z,13.83
2017-08-17T08:58:24.387Z,12.13
2017-08-17T09:03:26.394Z,7.97
2017-08-17T09:08:28.856Z,10.17
2017-08-17T09:13:30.849Z,8.33
2017-08-17T09:18:32.764Z,10.23
2017-08-17T09:23:34.721Z,4.97
2017-08-17T09:28:36.643Z,10.83
2017-08-17T09:33:38.572Z,8.23
2017-08-17T09:38:40.524Z,7.40
2017-08-17T09:43:42.452Z,6.90
2017-08-17T09:48:44.400Z,5.83
2017-08-17T09:53:46.366Z,9.97
2017-08-17T09:58:48.337Z,4.80
2017-08-17T10:03:50.327Z,7.07
2017-08-17T10:08:52.268Z,2.90
2017-08-17T10:13:54.203Z,7.37
2017-08-17T10:18:56.893Z,5.17
2017-08-17T10:23:58.877Z,4.10
2017-08-17T10:29:00.944Z,3.57
2017-08-17T10:34:03.262Z,5.77
2017-08-17T10:39:05.579Z,6.83
2017-08-17T10:44:07.812Z,6.77
2017-08-17T10:49:23.223Z,4.43
2017-08-17T10:54:29.960Z,6.17
2017-08-17T10:59:33.981Z,7.53
2017-08-17T11:04:36.203Z,9.03
2017-08-17T11:09:38.192Z,9.50
2017-08-17T11:14:40.214Z,4.07
2017-08-17T11:19:42.226Z,7.83
2017-08-17T11:24:44.301Z,6.23
2017-08-17T11:29:46.316Z,4.20
2017-08-17T11:34:49.150Z,8.73
2017-08-17T11:39:51.205Z,9.40
2017-08-17T11:44:53.323Z,9.57
2017-08-17T11:49:55.279Z,5.90
2017-08-17T11:54:57.299Z,5.90
2017-08-17T11:59:59.310Z,4.57
2017-08-17T12:05:01.291Z,3.90
2017-08-17T12:10:04.020Z,7.10
2017-08-17T12:15:06.441Z,7.63
2017-08-17T12:20:08.896Z,10.63
2017-08-17T12:25:12.721Z,4.30
2017-08-17T12:30:23.467Z,5.13
2017-08-17T12:35:27.152Z,5.83
2017-08-17T12:40:29.269Z,5.90
2017-08-17T12:45:31.249Z,5.13
2017-08-17T12:50:33.205Z,7.30
2017-08-17T12:55:35.198Z,6.17
2017-08-17T13:00:37.275Z,5.47
2017-08-17T13:05:40.140Z,9.80
2017-08-17T13:10:42.348Z,9.37
2017-08-17T13:15:44.384Z,6.33
2017-08-17T13:20:46.424Z,35.87
2017-08-17T13:25:48.555Z,12.53
2017-08-17T13:30:50.592Z,5.90
2017-08-17T13:35:52.619Z,5.27
2017-08-17T13:40:55.387Z,6.20
2017-08-17T13:45:58.170Z,7.37
2017-08-17T13:51:00.118Z,7.43
2017-08-17T13:56:02.207Z,2.53
2017-08-17T14:01:09.711Z,3.30
2017-08-17T14:06:11.916Z,5.50
2017-08-17T14:11:14.618Z,3.97
2017-08-17T14:16:16.602Z,5.53
2017-08-17T14:21:18.811Z,4.83
2017-08-17T14:26:20.836Z,9.70
2017-08-17T14:31:22.892Z,6.13
2017-08-17T14:36:24.886Z,5.83
2017-08-17T14:41:26.910Z,7.13
2017-08-17T14:46:28.879Z,8.90
2017-08-17T14:51:30.928Z,6.67
2017-08-17T14:56:33.658Z,8.87
2017-08-17T15:01:35.707Z,5.87
2017-08-17T15:06:37.756Z,10.90
2017-08-17T15:11:39.683Z,8.03
2017-08-17T15:16:41.632Z,6.87
2017-08-17T15:21:43.602Z,14.73
2017-08-17T15:26:45.563Z,10.10
2017-08-17T15:31:47.539Z,8.23
2017-08-17T15:36:49.623Z,9.23
2017-08-17T15:41:51.592Z,19.03
2017-08-17T15:46:53.548Z,14.20
2017-08-17T15:51:55.562Z,15.97
2017-08-17T15:56:57.559Z,14.60
2017-08-17T16:01:59.525Z,17.33
2017-08-17T16:07:01.531Z,15.80
2017-08-17T16:12:03.536Z,17.93
2017-08-17T16:17:06.228Z,14.60
2017-08-17T16:22:08.235Z,20.13
2017-08-17T16:27:10.935Z,14.60
2017-08-17T16:32:13.061Z,24.43
2017-08-17T16:37:15.796Z,15.03
2017-08-17T16:42:18.579Z,17.30
2017-08-17T16:47:21.322Z,17.00
2017-08-17T16:52:23.438Z,15.33
2017-08-17T16:57:25.532Z,20.60
2017-08-17T17:02:27.462Z,18.67
2017-08-17T17:07:29.496Z,21.73
2017-08-17T17:12:33.058Z,20.57
2017-08-17T17:17:35.173Z,16.10
2017-08-17T17:22:37.921Z,24.40
2017-08-17T17:27:39.904Z,20.70
2017-08-17T17:32:42.606Z,17.53
2017-08-17T17:37:44.589Z,20.70
2017-08-17T17:42:46.540Z,24.60
2017-08-17T17:47:48.584Z,18.70
2017-08-17T17:52:50.522Z,14.70
2017-08-17T17:57:52.649Z,13.10
2017-08-17T18:02:54.676Z,17.17
2017-08-17T18:07:57.618Z,20.83
2017-08-17T18:12:59.654Z,18.20
2017-08-17T18:18:01.691Z,20.60
2017-08-17T18:23:03.662Z,16.23
2017-08-17T18:28:05.708Z,15.90
2017-08-17T18:33:07.708Z,23.83
2017-08-17T18:38:09.669Z,18.00
2017-08-17T18:43:11.665Z,16.63
2017-08-17T18:48:13.747Z,13.17
2017-08-17T18:53:16.000Z,13.10
2017-08-17T18:58:18.615Z,15.70
2017-08-17T19:03:22.874Z,15.83
2017-08-17T19:08:25.158Z,15.03
2017-08-17T19:13:28.810Z,10.53
2017-08-17T19:18:30.885Z,13.43
2017-08-17T19:23:32.952Z,13.43
2017-08-17T19:28:37.120Z,14.33
2017-08-17T19:33:42.999Z,13.00
2017-08-17T19:38:48.987Z,17.33
2017-08-17T19:43:54.980Z,13.80
2017-08-17T19:48:57.167Z,12.03
2017-08-17T19:53:59.732Z,12.17
2017-08-17T19:59:02.232Z,10.77
2017-08-17T20:04:05.352Z,12.90
2017-08-17T20:09:07.331Z,9.30
2017-08-17T20:14:09.260Z,8.57
2017-08-17T20:19:11.389Z,16.77
2017-08-17T20:24:13.483Z,10.87
2017-08-17T20:29:15.454Z,11.57
2017-08-17T20:34:17.438Z,12.33
2017-08-17T20:39:19.447Z,23.77
2017-08-17T20:44:21.540Z,11.53
2017-08-17T20:49:23.515Z,12.77
2017-08-17T20:54:25.761Z,18.70
2017-08-17T20:59:28.619Z,14.10
2017-08-17T21:04:31.584Z,11.60
2017-08-17T21:09:33.647Z,17.50
2017-08-17T21:14:35.688Z,15.80
2017-08-17T21:19:37.737Z,20.30
2017-08-17T21:24:39.711Z,18.40
2017-08-17T21:29:41.701Z,14.00
2017-08-17T21:34:43.631Z,14.83
2017-08-17T21:39:45.613Z,15.20
2017-08-17T21:44:47.765Z,23.93
2017-08-17T21:49:49.867Z,16.33
2017-08-17T21:54:52.588Z,21.10
2017-08-17T21:59:54.523Z,20.30
2017-08-17T22:04:56.554Z,15.70
2017-08-17T22:09:58.559Z,15.63
2017-08-17T22:15:00.549Z,18.53
2017-08-17T22:20:03.256Z,16.63
2017-08-17T22:25:05.277Z,14.63
2017-08-17T22:30:07.274Z,21.37
2017-08-17T22:35:09.263Z,15.73
2017-08-17T22:40:11.249Z,13.03
2017-08-17T22:45:13.227Z,12.57
2017-08-17T22:50:15.197Z,18.30
2017-08-17T22:55:17.888Z,14.07
2017-08-17T23:00:19.949Z,9.67
2017-08-17T23:05:22.023Z,11.07
2017-08-17T23:10:24.077Z,10.80
2017-08-17T23:15:26.154Z,13.33
2017-08-17T23:20:28.254Z,9.53
2017-08-17T23:25:30.296Z,16.43
2017-08-17T23:30:32.301Z,10.90
2017-08-17T23:35:35.041Z,10.87
2017-08-17T23:40:37.049Z,12.70
2017-08-17T23:45:39.037Z,11.27
2017-08-17T23:50:40.992Z,12.10
2017-08-17T23:55:42.939Z,13.10
